createdAt,value
2016-12-28T00:00:01.371Z,49.24
2016-12-28T00:01:01.392Z,49.05
2016-12-28T00:02:01.728Z,49.24
2016-12-28T00:03:01.449Z,49.63
2016-12-28T00:04:01.474Z,49.15
2016-12-28T00:05:01.811Z,48.95
2016-12-28T00:06:01.536Z,48.86
2016-12-28T00:07:01.565Z,49.05
2016-12-28T00:08:01.893Z,48.95
2016-12-28T00:09:01.927Z,49.34
2016-12-28T00:10:01.643Z,49.34
2016-12-28T00:11:01.667Z,49.15
2016-12-28T00:12:01.697Z,49.43
2016-12-28T00:13:02.029Z,49.05
2016-12-28T00:14:01.754Z,48.95
2016-12-28T00:15:01.779Z,48.95
2016-12-28T00:16:01.807Z,48.95
2016-12-28T00:17:02.141Z,49.15
2016-12-28T00:18:02.168Z,49.15
2016-12-28T00:19:02.197Z,49.15
2016-12-28T00:20:01.910Z,49.43
2016-12-28T00:21:02.242Z,48.86
2016-12-28T00:22:02.271Z,48.95
2016-12-28T00:23:02.000Z,49.05
2016-12-28T00:24:02.061Z,49.05
2016-12-28T00:25:02.361Z,49.05
2016-12-28T00:26:02.079Z,49.34
2016-12-28T00:27:02.107Z,48.95
2016-12-28T00:28:02.439Z,49.05
2016-12-28T00:29:02.460Z,48.95
2016-12-28T00:30:02.217Z,49.05
2016-12-28T00:31:02.214Z,49.05
2016-12-28T00:32:02.239Z,48.86
2016-12-28T00:33:02.276Z,48.86
2016-12-28T00:34:02.601Z,48.93
2016-12-28T00:35:02.329Z,48.95
2016-12-28T00:36:02.358Z,49.05
2016-12-28T00:37:02.687Z,49.15
2016-12-28T00:38:02.403Z,49.02
2016-12-28T00:39:02.432Z,48.86
2016-12-28T00:40:02.469Z,49.02
2016-12-28T00:41:02.785Z,49.05
2016-12-28T00:42:02.514Z,49.12
2016-12-28T00:43:02.547Z,49.15
2016-12-28T00:44:02.568Z,49.05
2016-12-28T00:45:02.900Z,49.02
2016-12-28T00:46:02.629Z,49.02
2016-12-28T00:47:02.954Z,48.93
2016-12-28T00:48:02.674Z,48.93
2016-12-28T00:49:03.003Z,48.93
2016-12-28T00:50:02.736Z,48.93
2016-12-28T00:51:02.761Z,49.02
2016-12-28T00:52:02.794Z,49.12
2016-12-28T00:53:02.814Z,48.93
2016-12-28T00:54:02.839Z,49.02
2016-12-28T00:55:03.176Z,49.02
2016-12-28T00:56:03.209Z,48.83
2016-12-28T00:57:02.917Z,49.02
2016-12-28T00:58:03.250Z,49.32
2016-12-28T00:59:02.979Z,49.32
2016-12-28T01:00:03.307Z,49.12
2016-12-28T01:01:03.032Z,49.32
2016-12-28T01:02:03.068Z,49.32
2016-12-28T01:03:03.090Z,49.41
2016-12-28T01:04:03.106Z,49.41
2016-12-28T01:05:03.139Z,49.12
2016-12-28T01:06:03.476Z,49.32
2016-12-28T01:07:03.496Z,49.22
2016-12-28T01:08:03.217Z,49.22
2016-12-28T01:09:03.559Z,49.41
2016-12-28T01:10:03.279Z,49.02
2016-12-28T01:11:03.340Z,49.32
2016-12-28T01:12:03.364Z,49.12
2016-12-28T01:13:03.661Z,49.22
2016-12-28T01:14:03.384Z,49.41
2016-12-28T01:15:03.413Z,49.12
2016-12-28T01:16:03.444Z,49.51
2016-12-28T01:17:03.467Z,49.12
2016-12-28T01:18:03.489Z,49.12
2016-12-28T01:19:03.521Z,49.12
2016-12-28T01:20:03.550Z,49.02
2016-12-28T01:21:03.876Z,49.12
2016-12-28T01:22:03.603Z,49.02
2016-12-28T01:23:03.635Z,49.22
2016-12-28T01:24:03.965Z,49.22
2016-12-28T01:25:03.982Z,49.02
2016-12-28T01:26:03.702Z,49.32
2016-12-28T01:27:04.039Z,49.12
2016-12-28T01:28:03.764Z,49.02
2016-12-28T01:29:04.095Z,48.93
2016-12-28T01:30:04.125Z,48.93
2016-12-28T01:31:04.145Z,48.83
2016-12-28T01:32:04.183Z,48.71
2016-12-28T01:33:04.208Z,48.54
2016-12-28T01:34:03.932Z,48.93
2016-12-28T01:35:04.253Z,48.74
2016-12-28T01:36:03.982Z,48.74
2016-12-28T01:37:04.002Z,49.02
2016-12-28T01:38:04.331Z,48.9
2016-12-28T01:39:04.048Z,48.83
2016-12-28T01:40:04.392Z,48.93
2016-12-28T01:41:04.114Z,48.9
2016-12-28T01:42:04.444Z,48.83
2016-12-28T01:43:04.470Z,48.61
2016-12-28T01:44:04.191Z,48.64
2016-12-28T01:45:04.219Z,49
2016-12-28T01:46:04.553Z,48.44
2016-12-28T01:47:04.273Z,48.64
2016-12-28T01:48:04.610Z,48.61
2016-12-28T01:49:04.326Z,48.74
2016-12-28T01:50:04.352Z,48.81
2016-12-28T01:51:04.384Z,48.61
2016-12-28T01:52:04.717Z,48.61
2016-12-28T01:53:04.737Z,48.9
2016-12-28T01:54:04.771Z,48.9
2016-12-28T01:55:04.491Z,48.71
2016-12-28T01:56:04.516Z,48.81
2016-12-28T01:57:04.840Z,48.71
2016-12-28T01:58:04.873Z,48.71
2016-12-28T01:59:04.598Z,49.1
2016-12-28T02:00:04.631Z,48.43
2016-12-28T02:01:04.651Z,48.52
2016-12-28T02:02:04.984Z,48.52
2016-12-28T02:03:04.704Z,48.52
2016-12-28T02:04:05.046Z,48.52
2016-12-28T02:05:04.754Z,48.23
2016-12-28T02:06:04.795Z,48.52
2016-12-28T02:07:04.811Z,48.33
2016-12-28T02:08:05.148Z,48.43
2016-12-28T02:09:05.168Z,48.43
2016-12-28T02:10:04.897Z,48.52
2016-12-28T02:11:05.250Z,48.43
2016-12-28T02:12:05.250Z,48.61
2016-12-28T02:13:04.978Z,48.43
2016-12-28T02:14:05.303Z,48.52
2016-12-28T02:15:05.029Z,48.23
2016-12-28T02:16:05.058Z,48.61
2016-12-28T02:17:05.085Z,48.23
2016-12-28T02:18:05.110Z,48.52
2016-12-28T02:19:05.451Z,48.23
2016-12-28T02:20:05.159Z,48.43
2016-12-28T02:21:05.491Z,48.23
2016-12-28T02:22:05.517Z,48.52
2016-12-28T02:23:05.249Z,48.23
2016-12-28T02:24:05.270Z,48.33
2016-12-28T02:25:05.298Z,48.23
2016-12-28T02:26:05.328Z,48.23
2016-12-28T02:27:05.348Z,48.52
2016-12-28T02:28:05.381Z,48.52
2016-12-28T02:29:05.401Z,48.43
2016-12-28T02:30:05.438Z,48.61
2016-12-28T02:31:05.752Z,48.71
2016-12-28T02:32:05.779Z,48.13
2016-12-28T02:33:05.511Z,48.43
2016-12-28T02:34:05.568Z,48.43
2016-12-28T02:35:05.565Z,48.61
2016-12-28T02:36:05.597Z,48.43
2016-12-28T02:37:05.614Z,48.43
2016-12-28T02:38:05.642Z,48.13
2016-12-28T02:39:05.662Z,48.13
2016-12-28T02:40:05.999Z,48.13
2016-12-28T02:41:05.720Z,48.13
2016-12-28T02:42:06.056Z,48.33
2016-12-28T02:43:05.776Z,48.13
2016-12-28T02:44:06.109Z,48.43
2016-12-28T02:45:06.134Z,48.52
2016-12-28T02:46:06.163Z,48.33
2016-12-28T02:47:06.182Z,48.23
2016-12-28T02:48:06.211Z,48.23
2016-12-28T02:49:06.232Z,47.56
2016-12-28T02:50:05.960Z,48.03
2016-12-28T02:51:05.985Z,47.56
2016-12-28T02:52:06.321Z,47.46
2016-12-28T02:53:06.042Z,47.56
2016-12-28T02:54:06.067Z,48.13
2016-12-28T02:55:06.101Z,47.94
2016-12-28T02:56:06.119Z,47.94
2016-12-28T02:57:06.140Z,47.94
2016-12-28T02:58:06.479Z,48.03
2016-12-28T02:59:06.197Z,47.85
2016-12-28T03:00:06.230Z,48.21
2016-12-28T03:01:06.250Z,48.11
2016-12-28T03:02:06.619Z,47.94
2016-12-28T03:03:06.608Z,48.23
2016-12-28T03:04:06.640Z,47.44
2016-12-28T03:05:06.352Z,47.82
2016-12-28T03:06:06.689Z,47.27
2016-12-28T03:07:06.414Z,47.56
2016-12-28T03:08:06.438Z,47.44
2016-12-28T03:09:06.783Z,47.53
2016-12-28T03:10:06.496Z,47.56
2016-12-28T03:11:06.516Z,47.63
2016-12-28T03:12:06.857Z,47.44
2016-12-28T03:13:06.880Z,47.24
2016-12-28T03:14:06.902Z,47.65
2016-12-28T03:15:06.926Z,47.63
2016-12-28T03:16:06.651Z,47.15
2016-12-28T03:17:06.975Z,47.05
2016-12-28T03:18:06.707Z,47.27
2016-12-28T03:19:07.035Z,47.34
2016-12-28T03:20:07.061Z,47.34
2016-12-28T03:21:06.786Z,47.15
2016-12-28T03:22:07.118Z,47.24
2016-12-28T03:23:06.830Z,47.53
2016-12-28T03:24:06.859Z,47.44
2016-12-28T03:25:06.896Z,47.44
2016-12-28T03:26:07.220Z,47.34
2016-12-28T03:27:06.936Z,47.24
2016-12-28T03:28:06.977Z,47.63
2016-12-28T03:29:07.299Z,47.34
2016-12-28T03:30:07.331Z,47.53
2016-12-28T03:31:07.351Z,47.72
2016-12-28T03:32:07.080Z,47.53
2016-12-28T03:33:07.401Z,47.63
2016-12-28T03:34:07.121Z,47.63
2016-12-28T03:35:07.158Z,47.44
2016-12-28T03:36:07.180Z,47.63
2016-12-28T03:37:07.211Z,47.44
2016-12-28T03:38:07.237Z,47.05
2016-12-28T03:39:07.565Z,47.15
2016-12-28T03:40:07.281Z,47.05
2016-12-28T03:41:07.313Z,47.53
2016-12-28T03:42:07.653Z,47.44
2016-12-28T03:43:07.664Z,47.34
2016-12-28T03:44:07.391Z,47.53
2016-12-28T03:45:07.432Z,47.63
2016-12-28T03:46:07.445Z,47.24
2016-12-28T03:47:07.782Z,46.86
2016-12-28T03:48:07.803Z,47.15
2016-12-28T03:49:07.524Z,46.86
2016-12-28T03:50:07.551Z,47.15
2016-12-28T03:51:07.881Z,47.24
2016-12-28T03:52:07.614Z,47.15
2016-12-28T03:53:07.938Z,46.95
2016-12-28T03:54:07.663Z,47.15
2016-12-28T03:55:07.687Z,47.15
2016-12-28T03:56:07.712Z,47.24
2016-12-28T03:57:07.738Z,47.15
2016-12-28T03:58:08.074Z,47.05
2016-12-28T03:59:07.790Z,47.34
2016-12-28T04:00:07.823Z,46.95
2016-12-28T04:01:07.852Z,46.95
2016-12-28T04:02:07.876Z,46.86
2016-12-28T04:03:08.205Z,47.15
2016-12-28T04:04:07.930Z,47.15
2016-12-28T04:05:08.257Z,47.15
2016-12-28T04:06:08.275Z,47.15
2016-12-28T04:07:08.003Z,46.95
2016-12-28T04:08:08.328Z,46.95
2016-12-28T04:09:08.053Z,46.86
2016-12-28T04:10:08.390Z,46.86
2016-12-28T04:11:08.415Z,46.86
2016-12-28T04:12:08.456Z,46.95
2016-12-28T04:13:08.464Z,46.95
2016-12-28T04:14:08.189Z,46.86
2016-12-28T04:15:08.525Z,47.24
2016-12-28T04:16:08.538Z,47.24
2016-12-28T04:17:08.575Z,46.77
2016-12-28T04:18:08.600Z,46.86
2016-12-28T04:19:08.324Z,47.15
2016-12-28T04:20:08.349Z,46.57
2016-12-28T04:21:08.685Z,46.67
2016-12-28T04:22:08.706Z,46.95
2016-12-28T04:23:08.427Z,46.47
2016-12-28T04:24:08.452Z,46.86
2016-12-28T04:25:08.780Z,46.67
2016-12-28T04:26:08.505Z,46.47
2016-12-28T04:27:08.538Z,46.47
2016-12-28T04:28:08.871Z,46.47
2016-12-28T04:29:08.591Z,46.47
2016-12-28T04:30:08.924Z,46.38
2016-12-28T04:31:08.636Z,46.38
2016-12-28T04:32:08.661Z,46.28
2016-12-28T04:33:08.694Z,46.28
2016-12-28T04:34:08.710Z,46.28
2016-12-28T04:35:09.055Z,46.47
2016-12-28T04:36:08.776Z,46.38
2016-12-28T04:37:09.105Z,46.47
2016-12-28T04:38:09.122Z,46.47
2016-12-28T04:39:09.167Z,46.57
2016-12-28T04:40:09.179Z,46.47
2016-12-28T04:41:08.916Z,46.38
2016-12-28T04:42:09.238Z,46.47
2016-12-28T04:43:09.261Z,46.38
2016-12-28T04:44:08.990Z,45.99
2016-12-28T04:45:09.015Z,46.47
2016-12-28T04:46:09.352Z,46.38
2016-12-28T04:47:09.373Z,46.47
2016-12-28T04:48:09.088Z,46.38
2016-12-28T04:49:09.118Z,46.19
2016-12-28T04:50:09.146Z,46.19
2016-12-28T04:51:09.175Z,46.19
2016-12-28T04:52:09.496Z,46.38
2016-12-28T04:53:09.532Z,46.19
2016-12-28T04:54:09.549Z,46.38
2016-12-28T04:55:09.582Z,46.38
2016-12-28T04:56:09.307Z,46.38
2016-12-28T04:57:09.632Z,46.36
2016-12-28T04:58:09.660Z,46.09
2016-12-28T04:59:09.380Z,46.28
2016-12-28T05:00:09.709Z,46.45
2016-12-28T05:01:09.439Z,46.55
2016-12-28T05:02:09.463Z,46.36
2016-12-28T05:03:09.490Z,46.36
2016-12-28T05:04:09.816Z,46.26
2016-12-28T05:05:09.541Z,46.36
2016-12-28T05:06:09.874Z,46.38
2016-12-28T05:07:09.898Z,46.57
2016-12-28T05:08:09.919Z,46.36
2016-12-28T05:09:09.641Z,46.36
2016-12-28T05:10:09.672Z,46.36
2016-12-28T05:11:10.001Z,46.55
2016-12-28T05:12:09.731Z,46.55
2016-12-28T05:13:10.060Z,46.55
2016-12-28T05:14:10.088Z,46.64
2016-12-28T05:15:09.801Z,46.55
2016-12-28T05:16:09.826Z,46.74
2016-12-28T05:17:09.867Z,46.55
2016-12-28T05:18:10.188Z,46.64
2016-12-28T05:19:09.918Z,46.26
2016-12-28T05:20:09.938Z,46.74
2016-12-28T05:21:09.971Z,46.64
2016-12-28T05:22:09.997Z,46.26
2016-12-28T05:23:10.041Z,46.16
2016-12-28T05:24:10.350Z,46.16
2016-12-28T05:25:10.070Z,46.26
2016-12-28T05:26:10.404Z,46.45
2016-12-28T05:27:10.424Z,46.36
2016-12-28T05:28:10.461Z,46.36
2016-12-28T05:29:10.483Z,46.26
2016-12-28T05:30:10.206Z,46.38
2016-12-28T05:31:10.536Z,46.26
2016-12-28T05:32:10.261Z,46.55
2016-12-28T05:33:10.582Z,46.19
2016-12-28T05:34:10.311Z,46.57
2016-12-28T05:35:10.336Z,45.99
2016-12-28T05:36:10.665Z,46.09
2016-12-28T05:37:10.698Z,46.09
2016-12-28T05:38:10.735Z,45.99
2016-12-28T05:39:10.444Z,46.19
2016-12-28T05:40:10.467Z,46.47
2016-12-28T05:41:10.801Z,45.7
2016-12-28T05:42:10.523Z,45.99
2016-12-28T05:43:10.859Z,45.99
2016-12-28T05:44:10.571Z,45.8
2016-12-28T05:45:10.905Z,46.09
2016-12-28T05:46:10.631Z,45.8
2016-12-28T05:47:10.972Z,45.7
2016-12-28T05:48:10.989Z,45.99
2016-12-28T05:49:11.016Z,46.09
2016-12-28T05:50:10.734Z,45.8
2016-12-28T05:51:10.772Z,45.73
2016-12-28T05:52:10.824Z,46.01
2016-12-28T05:53:11.121Z,45.44
2016-12-28T05:54:11.158Z,45.44
2016-12-28T05:55:10.875Z,45.73
2016-12-28T05:56:11.203Z,46.01
2016-12-28T05:57:11.229Z,45.63
2016-12-28T05:58:11.254Z,45.44
2016-12-28T05:59:10.978Z,45.25
2016-12-28T06:00:11.001Z,45.05
2016-12-28T06:01:11.028Z,45.34
2016-12-28T06:02:11.058Z,45.34
2016-12-28T06:03:11.391Z,45.25
2016-12-28T06:04:11.416Z,45.25
2016-12-28T06:05:11.145Z,45.34
2016-12-28T06:06:11.166Z,45.25
2016-12-28T06:07:11.190Z,45.44
2016-12-28T06:08:11.216Z,45.44
2016-12-28T06:09:11.248Z,45.15
2016-12-28T06:10:11.589Z,45.05
2016-12-28T06:11:11.302Z,45.05
2016-12-28T06:12:11.331Z,45.05
2016-12-28T06:13:11.353Z,45.05
2016-12-28T06:14:11.390Z,45.15
2016-12-28T06:15:11.711Z,44.96
2016-12-28T06:16:11.743Z,45.53
2016-12-28T06:17:11.457Z,45.36
2016-12-28T06:18:11.486Z,45.53
2016-12-28T06:19:11.518Z,44.98
2016-12-28T06:20:11.847Z,45.56
2016-12-28T06:21:11.572Z,45.25
2016-12-28T06:22:11.901Z,45.56
2016-12-28T06:23:11.934Z,45.46
2016-12-28T06:24:11.651Z,45.36
2016-12-28T06:25:11.680Z,45.56
2016-12-28T06:26:11.711Z,45.36
2016-12-28T06:27:11.725Z,45.53
2016-12-28T06:28:12.054Z,45.56
2016-12-28T06:29:12.083Z,45.46
2016-12-28T06:30:11.812Z,45.27
2016-12-28T06:31:12.145Z,45.07
2016-12-28T06:32:11.858Z,44.98
2016-12-28T06:33:12.197Z,45.07
2016-12-28T06:34:11.915Z,45.07
2016-12-28T06:35:11.950Z,44.69
2016-12-28T06:36:11.973Z,44.96
2016-12-28T06:37:12.303Z,44.98
2016-12-28T06:38:12.023Z,44.98
2016-12-28T06:39:12.356Z,44.4
2016-12-28T06:40:12.080Z,44.89
2016-12-28T06:41:12.109Z,44.31
2016-12-28T06:42:12.134Z,44.49
2016-12-28T06:43:12.458Z,44.69
2016-12-28T06:44:12.184Z,44.49
2016-12-28T06:45:12.213Z,44.49
2016-12-28T06:46:12.236Z,44.49
2016-12-28T06:47:12.261Z,44.59
2016-12-28T06:48:12.594Z,44.4
2016-12-28T06:49:12.318Z,44.59
2016-12-28T06:50:12.347Z,44.69
2016-12-28T06:51:12.372Z,44.59
2016-12-28T06:52:12.409Z,44.79
2016-12-28T06:53:12.429Z,44.79
2016-12-28T06:54:12.454Z,44.79
2016-12-28T06:55:12.774Z,44.79
2016-12-28T06:56:12.803Z,44.79
2016-12-28T06:57:12.835Z,44.79
2016-12-28T06:58:12.552Z,44.49
2016-12-28T06:59:12.577Z,44.21
2016-12-28T07:00:12.915Z,44.69
2016-12-28T07:01:12.935Z,44.11
2016-12-28T07:02:12.975Z,44.11
2016-12-28T07:03:12.688Z,44.31
2016-12-28T07:04:13.024Z,44.31
2016-12-28T07:05:13.044Z,44.11
2016-12-28T07:06:12.771Z,44.11
2016-12-28T07:07:13.103Z,44.31
2016-12-28T07:08:12.823Z,44.11
2016-12-28T07:09:13.148Z,44.31
2016-12-28T07:10:12.881Z,44.11
2016-12-28T07:11:12.905Z,44.21
2016-12-28T07:12:12.931Z,44.02
2016-12-28T07:13:13.264Z,44.11
2016-12-28T07:14:13.292Z,44.49
2016-12-28T07:15:13.012Z,44.4
2016-12-28T07:16:13.351Z,44.21
2016-12-28T07:17:13.062Z,44.02
2016-12-28T07:18:13.090Z,44.4
2016-12-28T07:19:13.119Z,43.73
2016-12-28T07:20:13.146Z,44.02
2016-12-28T07:21:13.169Z,43.92
2016-12-28T07:22:13.193Z,43.73
2016-12-28T07:23:13.234Z,43.73
2016-12-28T07:24:13.563Z,43.73
2016-12-28T07:25:13.280Z,43.73
2016-12-28T07:26:13.613Z,43.63
2016-12-28T07:27:13.641Z,43.54
2016-12-28T07:28:13.359Z,43.82
2016-12-28T07:29:13.690Z,44.02
2016-12-28T07:30:13.407Z,43.92
2016-12-28T07:31:13.444Z,43.75
2016-12-28T07:32:13.465Z,43.54
2016-12-28T07:33:13.526Z,43.73
2016-12-28T07:34:13.526Z,43.54
2016-12-28T07:35:13.855Z,43.73
2016-12-28T07:36:13.879Z,43.73
2016-12-28T07:37:13.600Z,43.63
2016-12-28T07:38:13.624Z,43.54
2016-12-28T07:39:13.954Z,43.54
2016-12-28T07:40:13.682Z,43.63
2016-12-28T07:41:13.704Z,43.63
2016-12-28T07:42:13.731Z,43.54
2016-12-28T07:43:14.068Z,43.63
2016-12-28T07:44:13.790Z,43.75
2016-12-28T07:45:13.825Z,43.75
2016-12-28T07:46:14.142Z,43.63
2016-12-28T07:47:14.170Z,43.73
2016-12-28T07:48:14.195Z,43.82
2016-12-28T07:49:13.916Z,43.54
2016-12-28T07:50:13.945Z,43.73
2016-12-28T07:51:14.277Z,43.54
2016-12-28T07:52:14.006Z,43.63
2016-12-28T07:53:14.339Z,43.63
2016-12-28T07:54:14.064Z,43.54
2016-12-28T07:55:14.392Z,43.63
2016-12-28T07:56:14.417Z,43.82
2016-12-28T07:57:14.133Z,43.54
2016-12-28T07:58:14.470Z,43.82
2016-12-28T07:59:14.182Z,43.63
2016-12-28T08:00:14.219Z,43.54
2016-12-28T08:01:14.543Z,43.63
2016-12-28T08:02:14.572Z,43.73
2016-12-28T08:03:14.300Z,43.82
2016-12-28T08:04:14.326Z,43.54
2016-12-28T08:05:14.646Z,43.82
2016-12-28T08:06:14.682Z,43.73
2016-12-28T08:07:14.398Z,43.73
2016-12-28T08:08:14.427Z,43.82
2016-12-28T08:09:14.460Z,43.73
2016-12-28T08:10:14.480Z,43.63
2016-12-28T08:11:14.505Z,43.73
2016-12-28T08:12:14.837Z,43.63
2016-12-28T08:13:14.870Z,43.82
2016-12-28T08:14:14.895Z,43.63
2016-12-28T08:15:14.613Z,43.54
2016-12-28T08:16:14.948Z,43.54
2016-12-28T08:17:14.960Z,43.82
2016-12-28T08:18:15.004Z,43.92
2016-12-28T08:19:15.034Z,43.92
2016-12-28T08:20:15.051Z,43.54
2016-12-28T08:21:15.083Z,43.82
2016-12-28T08:22:14.804Z,43.73
2016-12-28T08:23:15.133Z,43.54
2016-12-28T08:24:15.165Z,43.73
2016-12-28T08:25:15.189Z,43.73
2016-12-28T08:26:14.901Z,43.63
2016-12-28T08:27:14.934Z,43.92
2016-12-28T08:28:15.262Z,43.73
2016-12-28T08:29:14.987Z,43.82
2016-12-28T08:30:15.323Z,43.44
2016-12-28T08:31:15.044Z,43.63
2016-12-28T08:32:15.373Z,43.34
2016-12-28T08:33:15.397Z,43.44
2016-12-28T08:34:15.126Z,43.82
2016-12-28T08:35:15.454Z,43.24
2016-12-28T08:36:15.167Z,43.63
2016-12-28T08:37:15.498Z,43.24
2016-12-28T08:38:15.228Z,43.05
2016-12-28T08:39:15.251Z,42.86
2016-12-28T08:40:15.282Z,43.24
2016-12-28T08:41:15.309Z,43.44
2016-12-28T08:42:15.637Z,43.23
2016-12-28T08:43:15.662Z,43.13
2016-12-28T08:44:15.694Z,43.54
2016-12-28T08:45:15.719Z,43.24
2016-12-28T08:46:15.748Z,43.82
2016-12-28T08:47:15.459Z,43.24
2016-12-28T08:48:15.492Z,43.32
2016-12-28T08:49:15.821Z,43.34
2016-12-28T08:50:15.853Z,43.34
2016-12-28T08:51:15.885Z,43.8
2016-12-28T08:52:15.906Z,43.8
2016-12-28T08:53:15.931Z,43.8
2016-12-28T08:54:15.656Z,43.23
2016-12-28T08:55:15.675Z,43.23
2016-12-28T08:56:16.014Z,43.13
2016-12-28T08:57:16.036Z,43.15
2016-12-28T08:58:15.784Z,43.34
2016-12-28T08:59:16.090Z,43.05
2016-12-28T09:00:16.114Z,43.24
2016-12-28T09:01:16.150Z,43.34
2016-12-28T09:02:16.171Z,43.05
2016-12-28T09:03:16.196Z,43.05
2016-12-28T09:04:15.918Z,43.24
2016-12-28T09:05:16.252Z,43.24
2016-12-28T09:06:16.272Z,43.34
2016-12-28T09:07:16.301Z,43.34
2016-12-28T09:08:16.026Z,43.15
2016-12-28T09:09:16.051Z,43.15
2016-12-28T09:10:16.078Z,43.44
2016-12-28T09:11:16.104Z,43.34
2016-12-28T09:12:16.436Z,43.82
2016-12-28T09:13:16.161Z,43.63
2016-12-28T09:14:16.196Z,43.34
2016-12-28T09:15:16.214Z,43.82
2016-12-28T09:16:16.538Z,43.82
2016-12-28T09:17:16.267Z,43.73
2016-12-28T09:18:16.291Z,43.92
2016-12-28T09:19:16.619Z,43.92
2016-12-28T09:20:16.341Z,43.73
2016-12-28T09:21:16.364Z,44.11
2016-12-28T09:22:16.397Z,44.11
2016-12-28T09:23:16.421Z,43.73
2016-12-28T09:24:16.750Z,43.63
2016-12-28T09:25:16.482Z,43.82
2016-12-28T09:26:16.511Z,44.21
2016-12-28T09:27:16.837Z,44.11
2016-12-28T09:28:16.565Z,43.92
2016-12-28T09:29:16.889Z,43.92
2016-12-28T09:30:16.614Z,44.11
2016-12-28T09:31:16.630Z,43.73
2016-12-28T09:32:16.962Z,43.82
2016-12-28T09:33:17.003Z,43.44
2016-12-28T09:34:16.716Z,43.54
2016-12-28T09:35:16.744Z,43.92
2016-12-28T09:36:17.077Z,43.92
2016-12-28T09:37:17.098Z,43.94
2016-12-28T09:38:17.130Z,43.65
2016-12-28T09:39:17.156Z,43.75
2016-12-28T09:40:16.876Z,43.75
2016-12-28T09:41:17.207Z,43.75
2016-12-28T09:42:16.928Z,43.82
2016-12-28T09:43:16.952Z,43.92
2016-12-28T09:44:17.285Z,43.85
2016-12-28T09:45:17.318Z,43.94
2016-12-28T09:46:17.331Z,43.75
2016-12-28T09:47:17.059Z,43.55
2016-12-28T09:48:17.097Z,43.75
2016-12-28T09:49:17.120Z,43.55
2016-12-28T09:50:17.453Z,43.75
2016-12-28T09:51:17.473Z,43.75
2016-12-28T09:52:17.502Z,43.65
2016-12-28T09:53:17.227Z,43.85
2016-12-28T09:54:17.247Z,43.85
2016-12-28T09:55:17.284Z,43.65
2016-12-28T09:56:17.309Z,43.27
2016-12-28T09:57:17.638Z,43.37
2016-12-28T09:58:17.699Z,43.07
2016-12-28T09:59:17.692Z,43.27
2016-12-28T10:00:17.412Z,43.46
2016-12-28T10:01:17.741Z,43.17
2016-12-28T10:02:17.466Z,43.27
2016-12-28T10:03:17.798Z,43.07
2016-12-28T10:04:17.519Z,43.17
2016-12-28T10:05:17.844Z,43.17
2016-12-28T10:06:17.885Z,42.97
2016-12-28T10:07:17.904Z,42.97
2016-12-28T10:08:17.631Z,42.97
2016-12-28T10:09:17.959Z,43.27
2016-12-28T10:10:17.682Z,43.27
2016-12-28T10:11:17.712Z,43.17
2016-12-28T10:12:17.729Z,42.88
2016-12-28T10:13:18.062Z,42.88
2016-12-28T10:14:17.786Z,42.79
2016-12-28T10:15:17.820Z,43.1
2016-12-28T10:16:17.841Z,43.07
2016-12-28T10:17:17.871Z,43
2016-12-28T10:18:17.893Z,42.88
2016-12-28T10:19:17.927Z,43.19
2016-12-28T10:20:18.258Z,43.1
2016-12-28T10:21:18.285Z,43.19
2016-12-28T10:22:18.305Z,43.1
2016-12-28T10:23:18.326Z,42.52
2016-12-28T10:24:18.359Z,42.71
2016-12-28T10:25:18.091Z,42.61
2016-12-28T10:26:18.418Z,42.8
2016-12-28T10:27:18.138Z,42.61
2016-12-28T10:28:18.469Z,42.61
2016-12-28T10:29:18.196Z,42.52
2016-12-28T10:30:18.228Z,42.8
2016-12-28T10:31:18.250Z,42.52
2016-12-28T10:32:18.587Z,42.23
2016-12-28T10:33:18.301Z,42.42
2016-12-28T10:34:18.335Z,42.23
2016-12-28T10:35:18.663Z,42.32
2016-12-28T10:36:18.392Z,42.52
2016-12-28T10:37:18.712Z,42.32
2016-12-28T10:38:18.745Z,42.23
2016-12-28T10:39:18.770Z,42.32
2016-12-28T10:40:18.503Z,42.23
2016-12-28T10:41:18.823Z,42.52
2016-12-28T10:42:18.853Z,42.52
2016-12-28T10:43:18.885Z,42.13
2016-12-28T10:44:18.602Z,42.23
2016-12-28T10:45:18.935Z,42.44
2016-12-28T10:46:18.964Z,42.32
2016-12-28T10:47:18.676Z,42.32
2016-12-28T10:48:19.020Z,42.32
2016-12-28T10:49:18.738Z,42.03
2016-12-28T10:50:18.771Z,42.03
2016-12-28T10:51:18.794Z,42.23
2016-12-28T10:52:19.124Z,42.03
2016-12-28T10:53:18.854Z,42.03
2016-12-28T10:54:19.183Z,42.32
2016-12-28T10:55:18.899Z,42.32
2016-12-28T10:56:19.228Z,42.13
2016-12-28T10:57:18.961Z,41.75
2016-12-28T10:58:19.290Z,42.52
2016-12-28T10:59:19.315Z,42.23
2016-12-28T11:00:19.339Z,42.23
2016-12-28T11:01:19.072Z,41.77
2016-12-28T11:02:19.405Z,42.42
2016-12-28T11:03:19.134Z,42.52
2016-12-28T11:04:19.159Z,42.32
2016-12-28T11:05:19.484Z,42.03
2016-12-28T11:06:19.205Z,41.94
2016-12-28T11:07:19.224Z,41.84
2016-12-28T11:08:19.557Z,42.52
2016-12-28T11:09:19.291Z,41.84
2016-12-28T11:10:19.315Z,42.05
2016-12-28T11:11:19.344Z,42.23
2016-12-28T11:12:19.373Z,42.32
2016-12-28T11:13:19.706Z,41.94
2016-12-28T11:14:19.731Z,42.42
2016-12-28T11:15:19.460Z,42.23
2016-12-28T11:16:19.480Z,42.42
2016-12-28T11:17:19.505Z,42.23
2016-12-28T11:18:19.530Z,42.42
2016-12-28T11:19:19.859Z,42.32
2016-12-28T11:20:19.587Z,42.42
2016-12-28T11:21:19.616Z,42.52
2016-12-28T11:22:19.950Z,42.42
2016-12-28T11:23:19.678Z,42.13
2016-12-28T11:24:20.000Z,42.13
2016-12-28T11:25:19.733Z,42.23
2016-12-28T11:26:20.055Z,42.23
2016-12-28T11:27:19.781Z,42.32
2016-12-28T11:28:20.111Z,42.32
2016-12-28T11:29:20.155Z,42.13
2016-12-28T11:30:19.863Z,42.32
2016-12-28T11:31:20.196Z,42.52
2016-12-28T11:32:20.217Z,42.32
2016-12-28T11:33:20.246Z,42.42
2016-12-28T11:34:20.279Z,42.42
2016-12-28T11:35:20.004Z,42.23
2016-12-28T11:36:20.034Z,42.32
2016-12-28T11:37:20.366Z,42.42
2016-12-28T11:38:20.092Z,42.23
2016-12-28T11:39:20.416Z,42.13
2016-12-28T11:40:20.445Z,42.23
2016-12-28T11:41:20.167Z,42.03
2016-12-28T11:42:20.192Z,42.52
2016-12-28T11:43:20.533Z,42.03
2016-12-28T11:44:20.255Z,41.84
2016-12-28T11:45:20.591Z,42.32
2016-12-28T11:46:20.313Z,41.75
2016-12-28T11:47:20.341Z,42.42
2016-12-28T11:48:20.672Z,42.32
2016-12-28T11:49:20.724Z,42.32
2016-12-28T11:50:20.421Z,42.23
2016-12-28T11:51:20.446Z,42.03
2016-12-28T11:52:20.783Z,42.32
2016-12-28T11:53:20.887Z,42.13
2016-12-28T11:54:20.534Z,42.23
2016-12-28T11:55:20.559Z,42.35
2016-12-28T11:56:20.590Z,42.32
2016-12-28T11:57:21.000Z,42.42
2016-12-28T11:58:20.641Z,42.42
2016-12-28T11:59:21.053Z,42.52
2016-12-28T12:00:20.695Z,42.42
2016-12-28T12:01:20.720Z,42.23
2016-12-28T12:02:20.748Z,42.52
2016-12-28T12:03:21.165Z,42.52
2016-12-28T12:04:20.811Z,42.52
2016-12-28T12:05:20.835Z,42.52
2016-12-28T12:06:20.860Z,42.32
2016-12-28T12:07:20.894Z,42.52
2016-12-28T12:08:21.301Z,42.52
2016-12-28T12:09:20.947Z,42.42
2016-12-28T12:10:20.976Z,42.32
2016-12-28T12:11:20.997Z,42.42
2016-12-28T12:12:21.026Z,42.32
2016-12-28T12:13:21.055Z,42.32
2016-12-28T12:14:21.477Z,42.32
2016-12-28T12:15:21.498Z,42.42
2016-12-28T12:16:21.142Z,42.23
2016-12-28T12:17:21.563Z,42.32
2016-12-28T12:18:21.196Z,41.75
2016-12-28T12:19:21.221Z,42.03
2016-12-28T12:20:21.258Z,41.75
2016-12-28T12:21:21.667Z,42.03
2016-12-28T12:22:21.696Z,42.03
2016-12-28T12:23:21.332Z,41.84
2016-12-28T12:24:21.737Z,42.03
2016-12-28T12:25:21.387Z,42.13
2016-12-28T12:26:21.800Z,42.03
2016-12-28T12:27:21.828Z,41.75
2016-12-28T12:28:21.473Z,41.77
2016-12-28T12:29:21.890Z,41.96
2016-12-28T12:30:21.914Z,41.84
2016-12-28T12:31:21.940Z,42.23
2016-12-28T12:32:21.973Z,42.23
2016-12-28T12:33:21.605Z,42.35
2016-12-28T12:34:22.022Z,42.32
2016-12-28T12:35:22.048Z,42.32
2016-12-28T12:36:21.696Z,42.23
2016-12-28T12:37:22.113Z,42.03
2016-12-28T12:38:21.751Z,42.23
2016-12-28T12:39:21.775Z,42.23
2016-12-28T12:40:22.184Z,42.32
2016-12-28T12:41:21.837Z,42.42
2016-12-28T12:42:22.250Z,42.13
2016-12-28T12:43:22.278Z,42.52
2016-12-28T12:44:21.910Z,41.94
2016-12-28T12:45:22.320Z,42.52
2016-12-28T12:46:21.970Z,42.32
2016-12-28T12:47:22.379Z,42.61
2016-12-28T12:48:22.408Z,43.19
2016-12-28T12:49:22.429Z,42.71
2016-12-28T12:50:22.078Z,43.77
2016-12-28T12:51:22.494Z,43.87
2016-12-28T12:52:22.169Z,43.77
2016-12-28T12:53:22.160Z,43.87